< < Back
Terminal Aerodrome Forecast


Current Version              Previous Versions:   1  2  3  4  5  6  7  8  9  

Terminal Aerodrome Forecast

392
FTUS42 KFFC 051140
TAFATL
TAF
KATL 051140Z 0512/0618 07010KT P6SM FEW250
     FM051400 08006KT P6SM SCT050
     FM051700 08006KT P6SM -SHRA BKN050
     FM060000 10006KT P6SM SCT070
     FM060500 09005KT P6SM BKN070
     FM061000 07005KT P6SM SCT015 BKN070
     FM061400 07005KT P6SM SCT025 BKN070=



Latest METAR

594
SAUS70 KWBC 051556
MTRATL
METAR KATL 051552Z 10008KT 10SM FEW032 SCT250 27/20 A3016 RMK AO2 SLP201
T02720200


USA.gov is the U.S. government's official web portal to all federal, state and local government web resources and services.